Fort Lauderdale Executive Airport
KFXE : now visible

Airfield :











YOU CAN JOIN US ON...

 
LOGIN :

Register | Disclaimer

   EN    FR    IT 

 









Legend :    VFR   Marginal VFR   IFR   Intensive IFR   Very Intensive IFR
Visi :
Ceiling :
>= 8 km
>= 3000ft
5 to 8 km
1000 to 3000 ft
1500m to 5 km
500 to 1000 ft
800 to 1500m
200 to 500 ft
< 800m
< 200 ft
Symbols :   Thunderstorms  Fog  Heavy snow  Heavy precipitations  Wind > 20 kt






- Airport Elevation : 13 ft


KFXE - Fort Lauderdale Executive

CURRENT METAR :
  • 300053Z 14005KT 10SM CLR 24/19 A3001 RMK AO2 SLP163 T02390194 $

EXPIRED METARs :
  • 292353Z 14006KT 10SM CLR 24/19 A3000 RMK AO2 SLP161 T02390189 10278 20228 51008 $
  • 292253Z 14006KT 24/19 A2999 RMK AO2 SLP158 T02440189 $

TAF KFXE
Valid from the 30 at 00:00 until the 01 at 00:00 UTC


292320Z 3000/3024 12006KT P6SM SCT030 BKN080
FM300900 20005KT P6SM SCT025 SCT060
FM301800 22014KT P6SM VCSH SCT030 SCT050
FM302300 25008KT P6SM SCT025 OVC050
KZMA FIR / North America



MET'MAP, your aeronautical weather chart ! - Copyright ORBIFLY December 2007 - Disclaimer

ORBIFLY MET'MAP TEAM :

Programming & Development : Alexandra Zaïnal
Concept & original design : Baudouin d'Aumeries
Assistance for programming : Marc-Olivier Méhu
Technical & hardware support : Manuel Goepfert

Contact : metmap@orbifly.com




SOURCES & CREDITS :

   NOAA       Earth
Advisory